createdAt,value
2018-09-08T00:00:09.795Z,66.59
2018-09-08T00:00:41.389Z,65.43
2018-09-08T00:01:12.994Z,66.92
2018-09-08T00:01:44.591Z,66.14
2018-09-08T00:02:16.185Z,66.55
2018-09-08T00:02:47.785Z,66.73
2018-09-08T00:03:19.368Z,67.47
2018-09-08T00:03:50.982Z,67.35
2018-09-08T00:04:22.581Z,67.13
2018-09-08T00:04:54.169Z,67.41
2018-09-08T00:05:25.755Z,67.14
2018-09-08T00:05:57.356Z,67.71
2018-09-08T00:06:28.961Z,67.91
2018-09-08T00:07:00.565Z,67.37
2018-09-08T00:07:32.137Z,67.43
2018-09-08T00:08:04.054Z,67.14
2018-09-08T00:08:35.713Z,67.83
2018-09-08T00:09:07.300Z,67.83
2018-09-08T00:09:38.897Z,67.95
2018-09-08T00:10:10.494Z,67.69
2018-09-08T00:10:42.085Z,68.19
2018-09-08T00:11:13.685Z,67.92
2018-09-08T00:11:45.270Z,68.72
2018-09-08T00:12:16.859Z,68.90
2018-09-08T00:12:48.443Z,67.82
2018-09-08T00:13:20.033Z,68.02
2018-09-08T00:13:51.662Z,68.26
2018-09-08T00:14:23.329Z,68.67
2018-09-08T00:14:54.447Z,68.31
2018-09-08T00:15:31.809Z,68.42
2018-09-08T00:16:09.107Z,68.47
2018-09-08T00:16:46.588Z,68.18
2018-09-08T00:17:23.816Z,68.38
2018-09-08T00:18:01.002Z,68.18
2018-09-08T00:18:38.290Z,68.58
2018-09-08T00:19:15.445Z,68.39
2018-09-08T00:19:52.631Z,68.38
2018-09-08T00:20:29.819Z,68.02
2018-09-08T00:21:07.053Z,68.37
2018-09-08T00:21:44.303Z,68.31
2018-09-08T00:22:21.448Z,68.75
2018-09-08T00:22:58.614Z,68.99
2018-09-08T00:23:35.847Z,68.56
2018-09-08T00:24:13.020Z,68.95
2018-09-08T00:24:50.253Z,69.24
2018-09-08T00:25:27.554Z,69.07
2018-09-08T00:26:04.805Z,69.00
2018-09-08T00:26:35.915Z,68.82
2018-09-08T00:27:07.027Z,69.07
2018-09-08T00:27:38.601Z,68.98
2018-09-08T00:28:10.188Z,68.64
2018-09-08T00:28:41.781Z,69.13
2018-09-08T00:29:13.417Z,69.04
2018-09-08T00:29:45.004Z,68.94
2018-09-08T00:30:16.587Z,69.04
2018-09-08T00:30:48.181Z,69.06
2018-09-08T00:31:19.853Z,68.97
2018-09-08T00:31:51.450Z,68.86
2018-09-08T00:32:23.057Z,68.99
2018-09-08T00:32:54.643Z,69.09
2018-09-08T00:33:26.228Z,68.97
2018-09-08T00:33:57.811Z,69.04
2018-09-08T00:34:29.398Z,68.98
2018-09-08T00:35:00.998Z,68.96
2018-09-08T00:35:32.588Z,68.67
2018-09-08T00:36:04.167Z,69.00
2018-09-08T00:36:35.813Z,69.06
2018-09-08T00:37:07.399Z,69.05
2018-09-08T00:37:38.978Z,68.90
2018-09-08T00:38:10.577Z,68.88
2018-09-08T00:38:42.163Z,68.91
2018-09-08T00:39:13.771Z,69.08
2018-09-08T00:39:45.355Z,69.09
2018-09-08T00:40:16.940Z,69.19
2018-09-08T00:40:48.527Z,69.03
2018-09-08T00:41:20.125Z,68.87
2018-09-08T00:41:51.726Z,69.10
2018-09-08T00:42:23.330Z,69.14
2018-09-08T00:42:54.916Z,69.17
2018-09-08T00:43:26.513Z,68.94
2018-09-08T00:43:58.103Z,69.09
2018-09-08T00:44:29.697Z,68.97
2018-09-08T00:45:01.277Z,69.05
2018-09-08T00:45:32.911Z,69.09
2018-09-08T00:46:04.503Z,69.02
2018-09-08T00:46:36.151Z,69.05
2018-09-08T00:47:07.743Z,69.01
2018-09-08T00:47:39.337Z,68.73
2018-09-08T00:48:10.942Z,68.94
2018-09-08T00:48:42.589Z,69.02
2018-09-08T00:49:14.184Z,68.82
2018-09-08T00:49:45.771Z,68.80
2018-09-08T00:50:17.356Z,69.04
2018-09-08T00:50:48.954Z,69.03
2018-09-08T00:51:20.558Z,68.81
2018-09-08T00:51:52.158Z,68.96
2018-09-08T00:52:23.761Z,68.66
2018-09-08T00:52:55.355Z,68.90
2018-09-08T00:53:27.236Z,68.81
2018-09-08T00:53:59.017Z,68.73
2018-09-08T00:54:30.991Z,68.84
2018-09-08T00:55:02.583Z,68.67
2018-09-08T00:55:34.171Z,68.66
2018-09-08T00:56:05.755Z,69.22
2018-09-08T00:56:37.338Z,68.97
2018-09-08T00:57:08.910Z,68.86
2018-09-08T00:57:40.495Z,68.77
2018-09-08T00:58:12.080Z,68.89
2018-09-08T00:58:43.681Z,68.79
2018-09-08T00:59:15.285Z,68.74
2018-09-08T00:59:46.934Z,68.80
2018-09-08T01:00:18.584Z,69.11
2018-09-08T01:00:50.161Z,69.28
2018-09-08T01:01:21.748Z,69.23
2018-09-08T01:01:53.335Z,69.12
2018-09-08T01:02:24.927Z,69.46
2018-09-08T01:02:56.525Z,69.66
2018-09-08T01:03:28.117Z,69.29
2018-09-08T01:03:59.703Z,69.02
2018-09-08T01:04:31.302Z,69.42
2018-09-08T01:05:02.879Z,68.89
2018-09-08T01:05:34.463Z,69.12
2018-09-08T01:06:06.062Z,69.12
2018-09-08T01:06:37.653Z,69.06
2018-09-08T01:07:09.239Z,68.43
2018-09-08T01:07:40.813Z,68.71
2018-09-08T01:08:12.402Z,68.87
2018-09-08T01:08:43.987Z,69.05
2018-09-08T01:09:15.589Z,68.91
2018-09-08T01:09:47.197Z,68.75
2018-09-08T01:10:18.794Z,68.84
2018-09-08T01:10:50.379Z,68.86
2018-09-08T01:11:21.982Z,69.01
2018-09-08T01:11:53.572Z,68.65
2018-09-08T01:12:25.169Z,68.73
2018-09-08T01:12:56.741Z,68.78
2018-09-08T01:13:28.341Z,68.59
2018-09-08T01:13:59.940Z,68.71
2018-09-08T01:14:31.532Z,68.64
2018-09-08T01:15:03.174Z,68.96
2018-09-08T01:15:34.760Z,69.08
2018-09-08T01:16:06.351Z,68.29
2018-09-08T01:16:37.950Z,68.87
2018-09-08T01:17:09.557Z,68.42
2018-09-08T01:17:41.144Z,69.00
2018-09-08T01:18:12.748Z,68.81
2018-09-08T01:18:44.331Z,68.73
2018-09-08T01:19:15.933Z,69.01
2018-09-08T01:19:47.537Z,68.99
2018-09-08T01:20:19.168Z,69.00
2018-09-08T01:20:50.752Z,68.89
2018-09-08T01:21:22.339Z,69.15
2018-09-08T01:21:53.933Z,69.04
2018-09-08T01:22:25.519Z,69.38
2018-09-08T01:22:57.103Z,68.81
2018-09-08T01:23:28.687Z,68.50
2018-09-08T01:24:00.287Z,68.47
2018-09-08T01:24:31.881Z,68.36
2018-09-08T01:25:03.515Z,68.85
2018-09-08T01:25:35.101Z,68.85
2018-09-08T01:26:06.691Z,68.71
2018-09-08T01:26:38.265Z,68.49
2018-09-08T01:27:09.853Z,68.69
2018-09-08T01:27:41.440Z,68.72
2018-09-08T01:28:13.037Z,68.82
2018-09-08T01:28:44.663Z,68.82
2018-09-08T01:29:16.261Z,68.71
2018-09-08T01:29:47.838Z,68.76
2018-09-08T01:30:19.436Z,68.42
2018-09-08T01:30:51.085Z,68.32
2018-09-08T01:31:22.671Z,68.56
2018-09-08T01:31:54.265Z,68.50
2018-09-08T01:32:25.867Z,68.26
2018-09-08T01:32:57.474Z,68.35
2018-09-08T01:33:29.055Z,68.21
2018-09-08T01:34:00.653Z,68.35
2018-09-08T01:34:32.253Z,68.43
2018-09-08T01:35:03.842Z,68.68
2018-09-08T01:35:35.427Z,68.31
2018-09-08T01:36:07.038Z,68.58
2018-09-08T01:36:38.613Z,68.45
2018-09-08T01:37:10.191Z,67.80
2018-09-08T01:37:41.823Z,68.39
2018-09-08T01:38:13.407Z,68.05
2018-09-08T01:38:44.996Z,68.19
2018-09-08T01:39:16.593Z,68.46
2018-09-08T01:39:48.179Z,68.40
2018-09-08T01:40:19.777Z,68.62
2018-09-08T01:40:51.362Z,68.77
2018-09-08T01:41:22.968Z,68.35
2018-09-08T01:41:54.570Z,68.66
2018-09-08T01:42:26.170Z,68.91
2018-09-08T01:42:57.785Z,68.86
2018-09-08T01:43:29.385Z,68.67
2018-09-08T01:44:00.989Z,68.46
2018-09-08T01:44:32.613Z,68.51
2018-09-08T01:45:04.214Z,68.96
2018-09-08T01:45:35.818Z,68.69
2018-09-08T01:46:07.415Z,68.87
2018-09-08T01:46:39.004Z,68.21
2018-09-08T01:47:10.590Z,68.40
2018-09-08T01:47:42.174Z,68.99
2018-09-08T01:48:13.763Z,69.04
2018-09-08T01:48:45.366Z,68.98
2018-09-08T01:49:16.970Z,68.85
2018-09-08T01:49:48.613Z,68.46
2018-09-08T01:50:20.208Z,68.84
2018-09-08T01:50:51.791Z,68.99
2018-09-08T01:51:23.429Z,68.38
2018-09-08T01:51:55.029Z,68.38
2018-09-08T01:52:26.620Z,68.59
2018-09-08T01:52:58.211Z,68.63
2018-09-08T01:53:29.969Z,68.62
2018-09-08T01:54:01.798Z,68.61
2018-09-08T01:54:33.622Z,68.58
2018-09-08T01:55:05.241Z,68.96
2018-09-08T01:55:36.813Z,69.15
2018-09-08T01:56:08.396Z,68.82
2018-09-08T01:56:39.983Z,68.92
2018-09-08T01:57:11.581Z,68.92
2018-09-08T01:57:43.182Z,68.53
2018-09-08T01:58:14.771Z,68.89
2018-09-08T01:58:46.424Z,68.36
2018-09-08T01:59:17.987Z,68.83
2018-09-08T01:59:49.575Z,69.03
2018-09-08T02:00:21.200Z,69.01
2018-09-08T02:00:52.786Z,68.98
2018-09-08T02:01:24.393Z,68.98
2018-09-08T02:01:55.980Z,68.63
2018-09-08T02:02:27.573Z,68.47
2018-09-08T02:02:59.193Z,68.65
2018-09-08T02:03:30.793Z,68.67
2018-09-08T02:04:02.393Z,68.48
2018-09-08T02:04:33.979Z,67.57
2018-09-08T02:05:05.555Z,67.02
2018-09-08T02:05:37.143Z,67.63
2018-09-08T02:06:08.772Z,67.72
2018-09-08T02:06:40.471Z,67.68
2018-09-08T02:07:12.065Z,67.16
2018-09-08T02:07:43.648Z,66.82
2018-09-08T02:08:15.235Z,66.79
2018-09-08T02:08:46.811Z,66.34
2018-09-08T02:09:18.405Z,66.34
2018-09-08T02:09:49.991Z,66.66
2018-09-08T02:10:21.576Z,66.48
2018-09-08T02:10:53.170Z,66.24
2018-09-08T02:11:24.775Z,66.03
2018-09-08T02:11:56.378Z,66.09
2018-09-08T02:12:27.981Z,66.38
2018-09-08T02:12:59.585Z,65.83
2018-09-08T02:13:31.197Z,65.81
2018-09-08T02:14:02.783Z,65.93
2018-09-08T02:14:34.694Z,65.56
2018-09-08T02:15:06.269Z,65.42
2018-09-08T02:15:37.861Z,65.88
2018-09-08T02:16:09.466Z,65.80
2018-09-08T02:16:41.071Z,65.56
2018-09-08T02:17:12.704Z,65.93
2018-09-08T02:17:44.288Z,66.36
2018-09-08T02:18:15.913Z,66.18
2018-09-08T02:18:47.499Z,66.03
2018-09-08T02:19:19.083Z,65.13
2018-09-08T02:19:50.668Z,65.15
2018-09-08T02:20:22.252Z,64.49
2018-09-08T02:20:53.853Z,64.77
2018-09-08T02:21:25.453Z,64.75
2018-09-08T02:21:57.043Z,64.15
2018-09-08T02:22:28.627Z,64.69
2018-09-08T02:23:00.250Z,64.25
2018-09-08T02:23:31.875Z,64.45
2018-09-08T02:24:03.466Z,64.49
2018-09-08T02:24:35.060Z,64.31
2018-09-08T02:25:06.706Z,64.56
2018-09-08T02:25:38.309Z,64.54
2018-09-08T02:26:09.900Z,64.25
2018-09-08T02:26:41.494Z,64.37
2018-09-08T02:27:13.084Z,63.94
2018-09-08T02:27:44.685Z,64.18
2018-09-08T02:28:16.301Z,64.26
2018-09-08T02:28:47.887Z,63.97
2018-09-08T02:29:19.472Z,64.88
2018-09-08T02:29:51.064Z,64.27
2018-09-08T02:30:22.661Z,64.23
2018-09-08T02:30:54.262Z,63.50
2018-09-08T02:31:25.870Z,64.19
2018-09-08T02:31:57.455Z,64.29
2018-09-08T02:32:29.034Z,64.07
2018-09-08T02:33:00.669Z,64.19
2018-09-08T02:33:32.287Z,63.84
2018-09-08T02:34:03.881Z,63.97
2018-09-08T02:34:35.461Z,63.57
2018-09-08T02:35:07.108Z,63.79
2018-09-08T02:35:38.679Z,63.32
2018-09-08T02:36:10.321Z,63.65
2018-09-08T02:36:41.911Z,63.73
2018-09-08T02:37:13.497Z,63.72
2018-09-08T02:37:45.106Z,63.52
2018-09-08T02:38:16.705Z,63.80
2018-09-08T02:38:48.311Z,63.38
2018-09-08T02:39:19.940Z,63.12
2018-09-08T02:39:51.531Z,62.98
2018-09-08T02:40:23.115Z,63.02
2018-09-08T02:40:54.704Z,62.86
2018-09-08T02:41:26.273Z,62.90
2018-09-08T02:41:57.841Z,62.93
2018-09-08T02:42:29.431Z,62.94
2018-09-08T02:43:01.015Z,63.14
2018-09-08T02:43:32.639Z,63.44
2018-09-08T02:44:04.241Z,63.22
2018-09-08T02:44:35.821Z,62.87
2018-09-08T02:45:07.414Z,62.61
2018-09-08T02:45:39.054Z,62.93
2018-09-08T02:46:10.657Z,62.56
2018-09-08T02:46:42.244Z,62.61
2018-09-08T02:47:13.825Z,63.67
2018-09-08T02:47:45.408Z,63.43
2018-09-08T02:48:16.994Z,63.51
2018-09-08T02:48:48.605Z,62.89
2018-09-08T02:49:20.217Z,62.58
2018-09-08T02:49:51.828Z,62.55
2018-09-08T02:50:23.460Z,62.45
2018-09-08T02:50:55.044Z,62.36
2018-09-08T02:51:26.627Z,62.44
2018-09-08T02:51:58.225Z,62.56
2018-09-08T02:52:29.825Z,62.73
2018-09-08T02:53:01.422Z,62.62
2018-09-08T02:53:33.007Z,62.67
2018-09-08T02:54:04.605Z,62.64
2018-09-08T02:54:36.195Z,62.60
2018-09-08T02:55:07.798Z,62.50
2018-09-08T02:55:39.437Z,62.56
2018-09-08T02:56:11.023Z,62.47
2018-09-08T02:56:42.639Z,62.25
2018-09-08T02:57:14.226Z,62.32
2018-09-08T02:57:45.814Z,62.32
2018-09-08T02:58:17.414Z,62.18
2018-09-08T02:58:49.009Z,63.43
2018-09-08T02:59:20.610Z,62.83
2018-09-08T02:59:52.200Z,62.71
2018-09-08T03:00:23.784Z,62.31
2018-09-08T03:00:55.362Z,62.34
2018-09-08T03:01:26.955Z,62.08
2018-09-08T03:01:58.540Z,62.17
2018-09-08T03:02:30.142Z,61.87
2018-09-08T03:03:01.742Z,62.00
2018-09-08T03:03:33.335Z,62.00
2018-09-08T03:04:04.962Z,61.85
2018-09-08T03:04:36.557Z,61.60
2018-09-08T03:05:08.184Z,62.16
2018-09-08T03:05:39.777Z,62.01
2018-09-08T03:06:11.364Z,62.42
2018-09-08T03:06:42.947Z,62.17
2018-09-08T03:07:14.541Z,61.77
2018-09-08T03:07:46.136Z,61.81
2018-09-08T03:08:17.774Z,62.03
2018-09-08T03:08:49.374Z,61.72
2018-09-08T03:09:20.977Z,61.91
2018-09-08T03:09:52.564Z,61.69
2018-09-08T03:10:24.207Z,62.07
2018-09-08T03:10:55.791Z,61.73
2018-09-08T03:11:27.379Z,61.56
2018-09-08T03:11:58.963Z,61.61
2018-09-08T03:12:30.537Z,61.88
2018-09-08T03:13:02.126Z,61.81
2018-09-08T03:13:33.726Z,61.72
2018-09-08T03:14:05.312Z,61.81
2018-09-08T03:14:36.913Z,61.53
2018-09-08T03:15:08.510Z,61.69
2018-09-08T03:15:40.159Z,61.74
2018-09-08T03:16:11.757Z,62.14
2018-09-08T03:16:43.347Z,61.82
2018-09-08T03:17:14.932Z,61.52
2018-09-08T03:17:46.515Z,61.59
2018-09-08T03:18:18.103Z,61.41
2018-09-08T03:18:49.677Z,61.48
2018-09-08T03:19:21.277Z,61.69
2018-09-08T03:19:52.883Z,61.50
2018-09-08T03:20:24.472Z,62.11
2018-09-08T03:20:56.061Z,61.34
2018-09-08T03:21:27.657Z,61.14
2018-09-08T03:21:59.243Z,61.25
2018-09-08T03:22:30.827Z,61.16
2018-09-08T03:23:02.398Z,61.35
2018-09-08T03:23:34.042Z,61.08
2018-09-08T03:24:05.645Z,61.04
2018-09-08T03:24:37.231Z,61.50
2018-09-08T03:25:08.828Z,61.25
2018-09-08T03:25:40.401Z,61.00
2018-09-08T03:26:11.983Z,61.59
2018-09-08T03:26:43.572Z,61.08
2018-09-08T03:27:15.159Z,61.01
2018-09-08T03:27:46.788Z,60.97
2018-09-08T03:28:18.357Z,61.17
2018-09-08T03:28:49.956Z,61.23
2018-09-08T03:29:21.553Z,61.13
2018-09-08T03:29:53.140Z,61.24
2018-09-08T03:30:24.771Z,60.89
2018-09-08T03:30:56.355Z,61.08
2018-09-08T03:31:27.939Z,61.14
2018-09-08T03:31:59.531Z,60.86
2018-09-08T03:32:31.120Z,60.83
2018-09-08T03:33:02.705Z,60.93
2018-09-08T03:33:34.306Z,61.07
2018-09-08T03:34:05.905Z,60.96
2018-09-08T03:34:37.491Z,60.97
2018-09-08T03:35:09.118Z,60.83
2018-09-08T03:35:40.707Z,60.69
2018-09-08T03:36:12.310Z,60.97
2018-09-08T03:36:43.935Z,60.93
2018-09-08T03:37:15.510Z,60.58
2018-09-08T03:37:47.106Z,60.69
2018-09-08T03:38:18.699Z,60.64
2018-09-08T03:38:50.279Z,60.65
2018-09-08T03:39:21.893Z,60.83
2018-09-08T03:39:53.494Z,60.85
2018-09-08T03:40:25.098Z,60.81
2018-09-08T03:40:56.732Z,61.11
2018-09-08T03:41:28.329Z,60.99
2018-09-08T03:41:59.929Z,60.46
2018-09-08T03:42:31.515Z,60.56
2018-09-08T03:43:03.085Z,60.48
2018-09-08T03:43:34.686Z,60.48
2018-09-08T03:44:06.320Z,60.46
2018-09-08T03:44:37.888Z,61.96
2018-09-08T03:45:09.476Z,61.46
2018-09-08T03:45:41.103Z,61.39
2018-09-08T03:46:12.696Z,60.91
2018-09-08T03:46:44.283Z,60.72
2018-09-08T03:47:15.968Z,60.50
2018-09-08T03:47:47.569Z,60.85
2018-09-08T03:48:19.156Z,61.47
2018-09-08T03:48:50.744Z,61.63
2018-09-08T03:49:22.331Z,60.93
2018-09-08T03:49:53.910Z,60.56
2018-09-08T03:50:25.478Z,60.26
2018-09-08T03:50:57.067Z,60.35
2018-09-08T03:51:28.665Z,60.40
2018-09-08T03:52:00.255Z,60.28
2018-09-08T03:52:31.879Z,60.15
2018-09-08T03:53:03.463Z,60.10
2018-09-08T03:53:35.048Z,60.18
2018-09-08T03:54:06.620Z,60.26
2018-09-08T03:54:38.217Z,60.05
2018-09-08T03:55:09.803Z,59.98
2018-09-08T03:55:41.387Z,59.96
2018-09-08T03:56:12.975Z,60.08
2018-09-08T03:56:44.559Z,59.98
2018-09-08T03:57:16.187Z,59.98
2018-09-08T03:57:47.790Z,59.83
2018-09-08T03:58:19.389Z,60.05
2018-09-08T03:58:51.019Z,59.89
2018-09-08T03:59:22.631Z,59.94
2018-09-08T03:59:54.223Z,59.90
2018-09-08T04:00:25.819Z,59.82
2018-09-08T04:00:57.407Z,59.83
2018-09-08T04:01:29.001Z,60.00
2018-09-08T04:02:00.588Z,59.88
2018-09-08T04:02:32.177Z,59.80
2018-09-08T04:03:03.817Z,59.82
2018-09-08T04:03:35.407Z,60.01
2018-09-08T04:04:06.986Z,60.01
2018-09-08T04:04:38.593Z,60.01
2018-09-08T04:05:10.197Z,59.81
2018-09-08T04:05:41.869Z,59.82
2018-09-08T04:06:13.478Z,59.90
2018-09-08T04:06:45.067Z,59.94
2018-09-08T04:07:16.651Z,60.05
2018-09-08T04:07:48.249Z,59.79
2018-09-08T04:08:19.835Z,59.80
2018-09-08T04:08:51.419Z,59.88
2018-09-08T04:09:23.008Z,59.88
2018-09-08T04:09:54.597Z,59.75
2018-09-08T04:10:26.197Z,59.80
2018-09-08T04:10:57.786Z,59.82
2018-09-08T04:11:29.361Z,59.65
2018-09-08T04:12:00.948Z,59.65
2018-09-08T04:12:32.536Z,59.63
2018-09-08T04:13:04.164Z,59.63
2018-09-08T04:13:35.751Z,59.64
2018-09-08T04:14:07.347Z,59.67
2018-09-08T04:14:38.958Z,59.61
2018-09-08T04:15:10.563Z,59.62
2018-09-08T04:15:42.152Z,59.59
2018-09-08T04:16:13.753Z,59.60
2018-09-08T04:16:45.340Z,59.55
2018-09-08T04:17:16.917Z,59.59
2018-09-08T04:17:48.565Z,59.75
2018-09-08T04:18:20.278Z,59.76
2018-09-08T04:18:51.855Z,59.66
2018-09-08T04:19:23.449Z,59.67
2018-09-08T04:19:55.039Z,59.59
2018-09-08T04:20:26.627Z,59.88
2018-09-08T04:20:58.219Z,59.72
2018-09-08T04:21:29.808Z,59.91
2018-09-08T04:22:01.431Z,59.81
2018-09-08T04:22:33.015Z,59.87
2018-09-08T04:23:04.604Z,59.91
2018-09-08T04:23:36.217Z,59.82
2018-09-08T04:24:07.948Z,59.80
2018-09-08T04:24:39.445Z,59.93
2018-09-08T04:25:11.036Z,59.87
2018-09-08T04:25:42.641Z,59.95
2018-09-08T04:26:14.241Z,59.95
2018-09-08T04:26:45.843Z,60.04
2018-09-08T04:27:17.422Z,59.95
2018-09-08T04:27:49.048Z,59.86
2018-09-08T04:28:20.650Z,59.87
2018-09-08T04:28:52.239Z,60.03
2018-09-08T04:29:23.849Z,59.88
2018-09-08T04:29:55.489Z,59.96
2018-09-08T04:30:27.075Z,60.02
2018-09-08T04:30:58.669Z,60.09
2018-09-08T04:31:30.255Z,60.01
2018-09-08T04:32:01.839Z,60.02
2018-09-08T04:32:33.432Z,60.20
2018-09-08T04:33:05.021Z,59.94
2018-09-08T04:33:36.608Z,59.93
2018-09-08T04:34:08.311Z,60.19
2018-09-08T04:34:39.914Z,59.97
2018-09-08T04:35:11.518Z,60.25
2018-09-08T04:35:43.122Z,59.92
2018-09-08T04:36:14.707Z,60.24
2018-09-08T04:36:46.296Z,60.18
2018-09-08T04:37:17.893Z,60.01
2018-09-08T04:37:49.489Z,60.25
2018-09-08T04:38:21.075Z,60.20
2018-09-08T04:38:52.678Z,60.02
2018-09-08T04:39:24.256Z,60.34
2018-09-08T04:39:55.839Z,60.23
2018-09-08T04:40:27.423Z,60.38
2018-09-08T04:40:59.004Z,60.25
2018-09-08T04:41:30.621Z,60.11
2018-09-08T04:42:02.230Z,60.03
2018-09-08T04:42:33.860Z,59.92
2018-09-08T04:43:05.448Z,59.97
2018-09-08T04:43:37.036Z,60.11
2018-09-08T04:44:08.647Z,60.18
2018-09-08T04:44:40.292Z,60.00
2018-09-08T04:45:11.869Z,60.18
2018-09-08T04:45:43.469Z,60.11
2018-09-08T04:46:15.056Z,59.92
2018-09-08T04:46:46.646Z,60.00
2018-09-08T04:47:18.241Z,59.93
2018-09-08T04:47:49.828Z,59.96
2018-09-08T04:48:21.415Z,60.08
2018-09-08T04:48:52.999Z,60.14
2018-09-08T04:49:24.573Z,60.08
2018-09-08T04:49:56.159Z,59.98
2018-09-08T04:50:27.747Z,60.09
2018-09-08T04:50:59.361Z,59.99
2018-09-08T04:51:30.970Z,60.01
2018-09-08T04:52:02.559Z,60.13
2018-09-08T04:52:34.143Z,60.35
2018-09-08T04:53:05.742Z,60.21
2018-09-08T04:53:37.346Z,60.26
2018-09-08T04:54:08.935Z,60.08
2018-09-08T04:54:40.526Z,59.99
2018-09-08T04:55:12.111Z,59.90
2018-09-08T04:55:43.682Z,59.99
2018-09-08T04:56:15.317Z,60.71
2018-09-08T04:56:46.917Z,61.01
2018-09-08T04:57:18.507Z,60.34
2018-09-08T04:57:50.092Z,60.26
2018-09-08T04:58:21.680Z,60.04
2018-09-08T04:58:53.274Z,60.10
2018-09-08T04:59:24.869Z,60.22
2018-09-08T04:59:56.456Z,60.20
2018-09-08T05:00:28.053Z,60.17
2018-09-08T05:00:59.654Z,60.21
2018-09-08T05:01:31.241Z,60.25
2018-09-08T05:02:02.861Z,60.49
2018-09-08T05:02:34.523Z,60.54
2018-09-08T05:03:06.079Z,60.47
2018-09-08T05:03:37.663Z,60.43
2018-09-08T05:04:09.258Z,60.42
2018-09-08T05:04:40.841Z,60.57
2018-09-08T05:05:12.431Z,60.66
2018-09-08T05:05:44.015Z,60.62
2018-09-08T05:06:15.590Z,60.64
2018-09-08T05:06:47.172Z,60.64
2018-09-08T05:07:18.759Z,60.66
2018-09-08T05:07:50.343Z,60.63
2018-09-08T05:08:21.917Z,60.84
2018-09-08T05:08:53.554Z,60.66
2018-09-08T05:09:25.173Z,60.73
2018-09-08T05:09:56.752Z,60.75
2018-09-08T05:10:28.357Z,60.84
2018-09-08T05:10:59.942Z,60.80
2018-09-08T05:11:31.521Z,60.84
2018-09-08T05:12:03.117Z,60.92
2018-09-08T05:12:34.999Z,60.75
2018-09-08T05:13:06.768Z,60.73
2018-09-08T05:13:38.607Z,60.69
2018-09-08T05:14:10.587Z,60.77
2018-09-08T05:14:42.183Z,60.74
2018-09-08T05:15:13.808Z,60.79
2018-09-08T05:15:45.399Z,60.80
2018-09-08T05:16:16.993Z,60.88
2018-09-08T05:16:48.580Z,60.88
2018-09-08T05:17:20.225Z,60.95
2018-09-08T05:17:51.799Z,60.88
2018-09-08T05:18:23.388Z,60.98
2018-09-08T05:18:54.972Z,60.98
2018-09-08T05:19:26.562Z,61.00
2018-09-08T05:19:58.156Z,61.04
2018-09-08T05:20:29.740Z,60.93
2018-09-08T05:21:01.322Z,60.92
2018-09-08T05:21:32.915Z,60.88
2018-09-08T05:22:04.486Z,60.84
2018-09-08T05:22:36.084Z,60.88
2018-09-08T05:23:07.687Z,60.89
2018-09-08T05:23:39.288Z,60.91
2018-09-08T05:24:10.878Z,60.87
2018-09-08T05:24:42.467Z,60.90
2018-09-08T05:25:14.056Z,60.92
2018-09-08T05:25:45.661Z,60.95
2018-09-08T05:26:17.305Z,60.90
2018-09-08T05:26:48.891Z,60.88
2018-09-08T05:27:20.465Z,60.90
2018-09-08T05:27:52.053Z,60.94
2018-09-08T05:28:23.664Z,60.97
2018-09-08T05:28:55.266Z,60.97
2018-09-08T05:29:26.866Z,61.06
2018-09-08T05:29:58.452Z,60.99
2018-09-08T05:30:30.049Z,61.00
2018-09-08T05:31:01.676Z,61.05
2018-09-08T05:31:33.304Z,61.09
2018-09-08T05:32:04.887Z,61.07
2018-09-08T05:32:36.522Z,61.10
2018-09-08T05:33:08.112Z,60.98
2018-09-08T05:33:39.717Z,61.00
2018-09-08T05:34:11.307Z,60.99
2018-09-08T05:34:42.892Z,60.95
2018-09-08T05:35:14.516Z,61.00
2018-09-08T05:35:46.090Z,61.00
2018-09-08T05:36:17.676Z,60.97
2018-09-08T05:36:49.280Z,61.00
2018-09-08T05:37:20.877Z,60.99
2018-09-08T05:37:52.470Z,61.00
2018-09-08T05:38:24.064Z,60.99
2018-09-08T05:38:55.700Z,61.08
2018-09-08T05:39:27.286Z,61.04
2018-09-08T05:39:58.881Z,61.07
2018-09-08T05:40:30.481Z,61.04
2018-09-08T05:41:02.077Z,61.03
2018-09-08T05:41:33.663Z,61.07
2018-09-08T05:42:05.291Z,60.99
2018-09-08T05:42:36.879Z,60.98
2018-09-08T05:43:08.508Z,61.01
2018-09-08T05:43:40.102Z,61.00
2018-09-08T05:44:11.719Z,60.98
2018-09-08T05:44:43.297Z,61.00
2018-09-08T05:45:14.915Z,60.97
2018-09-08T05:45:46.509Z,60.98
2018-09-08T05:46:18.118Z,61.03
2018-09-08T05:46:49.713Z,61.08
2018-09-08T05:47:21.309Z,61.05
2018-09-08T05:47:52.886Z,61.07
2018-09-08T05:48:24.508Z,61.01
2018-09-08T05:48:56.160Z,61.01
2018-09-08T05:49:27.704Z,61.21
2018-09-08T05:49:59.288Z,61.28
2018-09-08T05:50:30.885Z,61.34
2018-09-08T05:51:02.490Z,61.36
2018-09-08T05:51:34.083Z,61.33
2018-09-08T05:52:05.671Z,61.37
2018-09-08T05:52:37.254Z,61.49
2018-09-08T05:53:08.854Z,61.39
2018-09-08T05:53:40.478Z,61.39
2018-09-08T05:54:12.080Z,61.32
2018-09-08T05:54:43.756Z,61.37
2018-09-08T05:55:15.356Z,61.38
2018-09-08T05:55:47.127Z,61.44
2018-09-08T05:56:18.732Z,61.37
2018-09-08T05:56:50.349Z,61.52
2018-09-08T05:57:21.968Z,61.44
2018-09-08T05:57:53.580Z,61.43
2018-09-08T05:58:25.190Z,61.30
2018-09-08T05:58:56.835Z,61.37
2018-09-08T05:59:28.417Z,61.31
2018-09-08T06:00:00.021Z,61.26
2018-09-08T06:00:31.609Z,61.25
2018-09-08T06:01:03.215Z,61.24
2018-09-08T06:01:34.931Z,61.19
2018-09-08T06:02:06.607Z,61.18
2018-09-08T06:02:38.242Z,61.22
2018-09-08T06:03:09.853Z,61.20
2018-09-08T06:03:41.457Z,61.12
2018-09-08T06:04:13.029Z,61.11
2018-09-08T06:04:44.615Z,61.05
2018-09-08T06:05:16.203Z,61.05
2018-09-08T06:05:47.788Z,61.07
2018-09-08T06:06:50.686Z,61.01
2018-09-08T06:07:22.326Z,61.01
2018-09-08T06:07:53.933Z,61.01
2018-09-08T06:08:25.520Z,60.98
2018-09-08T06:09:28.306Z,60.91
2018-09-08T06:09:59.891Z,60.93
2018-09-08T06:10:31.486Z,60.95
2018-09-08T06:11:03.117Z,60.96
2018-09-08T06:11:34.713Z,60.95
2018-09-08T06:12:06.306Z,60.93
2018-09-08T06:12:37.936Z,60.92
2018-09-08T06:13:09.524Z,60.93
2018-09-08T06:13:41.111Z,60.91
2018-09-08T06:14:12.804Z,60.92
2018-09-08T06:14:44.384Z,60.94
2018-09-08T06:15:15.979Z,61.04
2018-09-08T06:15:47.581Z,60.96
2018-09-08T06:16:19.185Z,60.95
2018-09-08T06:16:50.771Z,60.90
2018-09-08T06:17:22.435Z,61.25
2018-09-08T06:17:54.030Z,61.93
2018-09-08T06:18:25.645Z,62.41
2018-09-08T06:18:57.230Z,61.65
2018-09-08T06:19:28.857Z,60.87
2018-09-08T06:20:00.474Z,60.82
2018-09-08T06:20:32.130Z,60.82
2018-09-08T06:21:03.730Z,60.84
2018-09-08T06:21:35.328Z,60.95
2018-09-08T06:22:06.929Z,60.92
2018-09-08T06:22:38.521Z,60.94
2018-09-08T06:23:10.112Z,61.02
2018-09-08T06:23:41.734Z,61.23
2018-09-08T06:24:13.333Z,61.13
2018-09-08T06:24:44.958Z,61.15
2018-09-08T06:25:16.560Z,61.13
2018-09-08T06:25:48.174Z,61.21
2018-09-08T06:26:19.785Z,61.18
2018-09-08T06:26:51.372Z,61.24
2018-09-08T06:27:22.946Z,61.27
2018-09-08T06:27:54.604Z,61.28
2018-09-08T06:28:26.234Z,61.36
2018-09-08T06:28:57.822Z,61.26
2018-09-08T06:29:29.421Z,61.33
2018-09-08T06:30:01.021Z,61.29
2018-09-08T06:30:32.611Z,61.30
2018-09-08T06:31:04.199Z,61.26
2018-09-08T06:31:35.787Z,61.22
2018-09-08T06:32:07.385Z,61.14
2018-09-08T06:32:38.984Z,61.11
2018-09-08T06:33:10.621Z,61.15
2018-09-08T06:33:42.274Z,61.47
2018-09-08T06:34:13.894Z,61.81
2018-09-08T06:34:45.503Z,61.29
2018-09-08T06:35:17.232Z,61.89
2018-09-08T06:35:48.742Z,62.22
2018-09-08T06:36:20.328Z,61.62
2018-09-08T06:36:52.457Z,61.13
2018-09-08T06:37:24.061Z,61.12
2018-09-08T06:37:55.668Z,60.93
2018-09-08T06:38:27.237Z,61.30
2018-09-08T06:38:58.823Z,60.95
2018-09-08T06:39:30.408Z,61.15
2018-09-08T06:40:01.986Z,61.74
2018-09-08T06:40:33.586Z,62.57
2018-09-08T06:41:05.180Z,62.47
2018-09-08T06:41:36.962Z,61.93
2018-09-08T06:42:08.553Z,61.16
2018-09-08T06:42:40.135Z,61.00
2018-09-08T06:43:11.720Z,61.17
2018-09-08T06:43:43.321Z,61.45
2018-09-08T06:44:14.975Z,61.40
2018-09-08T06:44:46.586Z,62.27
2018-09-08T06:45:18.216Z,62.56
2018-09-08T06:45:49.789Z,61.80
2018-09-08T06:46:21.372Z,61.75
2018-09-08T06:46:52.959Z,61.36
2018-09-08T06:47:24.542Z,61.33
2018-09-08T06:47:56.141Z,61.28
2018-09-08T06:48:27.728Z,61.27
2018-09-08T06:48:59.321Z,61.18
2018-09-08T06:49:30.966Z,61.34